9C8 weather

Evart Municipal Airport
Evart, Michigan, United States

Public forecast

Using degrees Fahrenheit for public forecast. Weather courtesy of forecast.io.

Closest aviation weather report (METAR) to Evart Municipal Airport

Closest report is Roben Hood Airport, 14.3 nm (26.4 km) SW. Retrieved 2020/06/06 22:55 UTC (18 minutes ago):

KRQB 062255Z AUTO 05009G16KT 10SM CLR 20/09 A3005 RMK AO2 T02030091

Closest aviation forecast (TAF) to Evart Municipal Airport

Closest forecast is Manistee Co Blacker Airport, 47.5 nm (87.9 km) WNW. Retrieved 2020/06/06 18:06 UTC (5 hours ago):

TAF KMBL 061805Z 0618/0718 33014G18KT P6SM SKC FM062200 36010KT P6SM SKC FM070300 VRB03KT P6SM FEW250 FM071200 10005KT P6SM SCT180 FM071700 01006KT P6SM BKN180